Time;durP1;ratioP1;P1;durP2;ratioP2;P2;SDS_P1;SDS_P2;PMS_P1;PMS_P2;Temp;Humidity;BMP_temperature;BMP_pressure;BME280_temperature;BME280_humidity;BME280_pressure;Samples;Min_cycle;Max_cycle;Signal;HPM_P1;HPM_P2
2023/12/25 00:01:05;;;;;;;3.45;3.25;;;6.80;99.90;;;;;;5060775;28;20194;-77
2023/12/25 00:03:32;;;;;;;3.90;3.58;;;6.80;99.90;;;;;;5060642;28;20683;-77
2023/12/25 00:06:01;;;;;;;3.33;3.13;;;6.70;99.90;;;;;;5060363;28;20216;-78
2023/12/25 00:08:28;;;;;;;3.83;3.53;;;6.70;99.90;;;;;;5059665;28;20218;-76
2023/12/25 00:10:55;;;;;;;4.13;3.72;;;6.70;99.90;;;;;;5059429;28;20206;-76
2023/12/25 00:13:22;;;;;;;5.55;4.28;;;6.70;99.90;;;;;;5059647;28;20325;-77
2023/12/25 00:15:49;;;;;;;7.38;4.75;;;6.60;99.90;;;;;;5061362;28;20206;-76
2023/12/25 00:18:19;;;;;;;4.60;4.20;;;6.60;99.90;;;;;;5060368;28;20222;-77
2023/12/25 00:20:45;;;;;;;5.18;4.45;;;6.60;99.90;;;;;;5059205;28;20199;-77
2023/12/25 00:23:14;;;;;;;4.57;4.15;;;6.60;99.90;;;;;;5059300;28;20352;-77
2023/12/25 00:25:41;;;;;;;4.00;3.60;;;6.60;99.90;;;;;;5059199;28;20229;-76
2023/12/25 00:28:08;;;;;;;4.50;4.10;;;6.60;99.90;;;;;;5057745;28;20226;-76
2023/12/25 00:30:35;;;;;;;4.43;3.95;;;6.60;99.90;;;;;;5060911;28;20218;-77
2023/12/25 00:33:02;;;;;;;3.72;3.35;;;6.60;99.90;;;;;;5059105;28;20225;-76
2023/12/25 00:35:29;;;;;;;3.97;3.65;;;6.50;99.90;;;;;;5062416;28;20286;-78
2023/12/25 00:37:56;;;;;;;3.58;3.30;;;6.50;99.90;;;;;;5059812;28;20222;-76
2023/12/25 00:40:25;;;;;;;3.58;3.30;;;6.50;99.90;;;;;;5060940;28;20260;-76
2023/12/25 00:42:52;;;;;;;3.58;3.28;;;6.50;99.90;;;;;;5058285;28;20218;-76
2023/12/25 00:45:19;;;;;;;4.30;3.90;;;6.50;99.90;;;;;;5062255;28;20619;-77
2023/12/25 00:47:46;;;;;;;4.20;3.85;;;6.50;99.90;;;;;;5059595;28;20227;-77
2023/12/25 00:50:13;;;;;;;4.47;4.07;;;6.50;99.90;;;;;;5059476;28;20238;-76
2023/12/25 00:52:40;;;;;;;4.72;3.75;;;6.40;99.90;;;;;;5057992;28;20218;-76
2023/12/25 00:55:08;;;;;;;4.00;3.70;;;6.40;99.90;;;;;;5058171;28;20194;-76
2023/12/25 00:57:36;;;;;;;4.30;4.00;;;6.40;99.90;;;;;;5060283;28;20313;-76
2023/12/25 01:00:03;;;;;;;5.03;4.53;;;6.40;99.90;;;;;;5060809;28;20198;-75
2023/12/25 01:02:30;;;;;;;4.65;4.25;;;6.40;99.90;;;;;;5058609;28;20218;-76
2023/12/25 01:04:57;;;;;;;4.57;4.18;;;6.40;99.90;;;;;;5058634;28;20199;-77
2023/12/25 01:07:24;;;;;;;4.60;4.20;;;6.40;99.90;;;;;;5058964;28;20622;-76
2023/12/25 01:09:51;;;;;;;3.83;3.53;;;6.30;99.90;;;;;;5059656;28;20218;-76
2023/12/25 01:12:18;;;;;;;3.92;3.65;;;6.30;99.90;;;;;;5057176;28;20225;-77
2023/12/25 01:14:47;;;;;;;4.03;3.70;;;6.30;99.90;;;;;;5055602;28;20233;-77
2023/12/25 01:17:14;;;;;;;3.85;3.53;;;6.40;99.90;;;;;;5058636;28;20231;-76
2023/12/25 01:19:41;;;;;;;3.28;3.08;;;6.40;99.90;;;;;;5059352;28;20202;-78
2023/12/25 01:22:08;;;;;;;4.00;3.60;;;6.40;99.90;;;;;;5060722;28;20237;-75
2023/12/25 01:24:35;;;;;;;3.97;3.67;;;6.40;99.90;;;;;;5060504;28;20998;-75
2023/12/25 01:27:02;;;;;;;3.63;3.40;;;6.40;99.90;;;;;;5059526;28;20198;-76
2023/12/25 01:29:29;;;;;;;4.20;3.90;;;6.30;99.90;;;;;;5060187;28;20213;-76
2023/12/25 01:31:57;;;;;;;4.72;4.32;;;6.20;99.90;;;;;;5057924;28;20937;-76
2023/12/25 01:34:24;;;;;;;3.95;3.65;;;6.20;99.90;;;;;;5056862;28;20220;-77
2023/12/25 01:36:51;;;;;;;4.10;3.70;;;6.20;99.90;;;;;;5054889;28;20209;-77
2023/12/25 01:39:18;;;;;;;3.85;3.55;;;6.20;99.90;;;;;;5060228;28;20202;-77
2023/12/25 01:41:45;;;;;;;4.38;4.00;;;6.20;99.90;;;;;;5057615;28;20194;-76
2023/12/25 01:44:13;;;;;;;3.67;3.47;;;6.20;99.90;;;;;;5057439;28;20218;-77
2023/12/25 01:46:40;;;;;;;4.20;3.90;;;6.20;99.90;;;;;;5059307;28;20739;-76
2023/12/25 01:49:09;;;;;;;4.05;3.75;;;6.20;99.90;;;;;;5056724;28;20225;-76
2023/12/25 01:51:36;;;;;;;4.25;3.85;;;6.10;99.90;;;;;;5059916;28;20201;-76
2023/12/25 01:54:04;;;;;;;5.07;4.45;;;6.10;99.90;;;;;;5059919;28;20229;-76
2023/12/25 01:56:32;;;;;;;4.40;4.00;;;6.10;99.90;;;;;;5058713;28;20976;-76
2023/12/25 01:58:59;;;;;;;4.50;4.10;;;6.20;99.90;;;;;;5059432;28;20325;-77
2023/12/25 02:01:26;;;;;;;4.20;3.90;;;6.20;99.90;;;;;;5059712;28;20609;-77
2023/12/25 02:03:53;;;;;;;4.00;3.70;;;6.20;99.90;;;;;;5054955;28;20300;-76
2023/12/25 02:06:22;;;;;;;3.80;3.60;;;6.20;99.90;;;;;;5053127;28;20214;-76
2023/12/25 02:08:49;;;;;;;3.85;3.55;;;6.30;99.90;;;;;;5056943;28;20230;-76
2023/12/25 02:11:16;;;;;;;4.20;3.90;;;6.30;99.90;;;;;;5059534;28;20231;-76
2023/12/25 02:13:43;;;;;;;3.83;3.63;;;6.40;99.90;;;;;;5055914;28;20226;-76
2023/12/25 02:16:11;;;;;;;3.78;3.50;;;6.40;99.90;;;;;;5057571;28;20202;-76
2023/12/25 02:18:38;;;;;;;3.50;3.20;;;6.40;99.90;;;;;;5058508;28;20267;-76
2023/12/25 02:21:06;;;;;;;3.28;3.08;;;6.40;99.90;;;;;;5058990;28;20198;-76
2023/12/25 02:23:38;;;;;;;3.67;3.40;;;6.40;99.90;;;;;;5058566;28;20218;-77
2023/12/25 02:26:07;;;;;;;3.95;3.65;;;6.40;99.90;;;;;;5054252;28;20929;-76
2023/12/25 02:28:34;;;;;;;4.18;3.83;;;6.40;99.90;;;;;;5058048;28;20642;-77
2023/12/25 02:31:01;;;;;;;4.07;3.75;;;6.40;99.90;;;;;;5064338;28;20303;-76
2023/12/25 02:33:28;;;;;;;3.88;3.60;;;6.30;99.90;;;;;;5057033;28;20734;-77
2023/12/25 02:35:55;;;;;;;3.80;3.50;;;6.30;99.90;;;;;;5059588;28;20198;-76
2023/12/25 02:38:22;;;;;;;4.05;3.75;;;6.30;99.90;;;;;;5059937;28;20225;-77
2023/12/25 02:40:49;;;;;;;4.25;3.95;;;6.30;99.90;;;;;;5058147;28;20857;-77
2023/12/25 02:43:18;;;;;;;4.10;3.80;;;6.30;99.90;;;;;;5055970;28;20224;-77
2023/12/25 02:45:45;;;;;;;3.63;3.33;;;6.30;99.90;;;;;;5058781;28;20202;-76
2023/12/25 02:48:12;;;;;;;3.45;3.25;;;6.30;99.90;;;;;;5059751;28;20226;-76
2023/12/25 02:50:39;;;;;;;4.45;4.05;;;6.30;99.90;;;;;;5060730;28;20229;-76
2023/12/25 02:53:06;;;;;;;4.70;3.67;;;6.30;99.90;;;;;;5056532;28;20230;-76
2023/12/25 02:55:33;;;;;;;4.00;3.70;;;6.20;99.90;;;;;;5059258;28;20206;-76
2023/12/25 02:58:00;;;;;;;4.80;4.40;;;6.10;99.90;;;;;;5062328;28;20245;-77
2023/12/25 03:00:29;;;;;;;4.55;4.10;;;6.00;99.90;;;;;;5062433;28;20198;-75
2023/12/25 03:02:56;;;;;;;4.00;3.70;;;6.00;99.90;;;;;;5059256;28;20224;-76
2023/12/25 03:05:23;;;;;;;3.90;3.60;;;6.00;99.90;;;;;;5060384;28;20437;-76
2023/12/25 03:07:50;;;;;;;4.43;4.13;;;6.00;99.90;;;;;;5061941;28;20226;-76
2023/12/25 03:10:17;;;;;;;4.10;3.80;;;5.90;99.90;;;;;;5061249;28;20221;-77
2023/12/25 03:12:43;;;;;;;4.05;3.75;;;5.90;99.90;;;;;;5057696;28;20222;-77
2023/12/25 03:15:10;;;;;;;3.45;3.25;;;5.90;99.90;;;;;;5062236;28;20190;-75
2023/12/25 03:17:38;;;;;;;3.97;3.67;;;6.00;99.90;;;;;;5063215;28;20259;-76
2023/12/25 03:20:07;;;;;;;3.83;3.53;;;6.00;99.90;;;;;;5061912;28;20205;-75
2023/12/25 03:22:35;;;;;;;3.78;3.53;;;6.00;99.90;;;;;;5060670;28;20313;-79
2023/12/25 03:25:02;;;;;;;3.58;3.28;;;6.00;99.90;;;;;;5062258;28;20194;-76
2023/12/25 03:27:29;;;;;;;3.22;3.03;;;6.00;99.90;;;;;;5062089;28;20218;-76
2023/12/25 03:29:56;;;;;;;3.10;2.90;;;6.10;99.90;;;;;;5060742;28;20222;-75
2023/12/25 03:32:23;;;;;;;2.97;2.80;;;6.10;99.90;;;;;;5062158;28;20222;-75
2023/12/25 03:34:51;;;;;;;3.47;3.28;;;6.10;99.90;;;;;;5063958;28;20217;-76
2023/12/25 03:37:18;;;;;;;3.33;3.10;;;6.10;99.90;;;;;;5063229;28;20950;-77
2023/12/25 03:39:45;;;;;;;3.40;3.10;;;6.10;99.90;;;;;;5058197;28;20198;-76
2023/12/25 03:42:12;;;;;;;3.47;3.28;;;6.10;99.90;;;;;;5061851;28;20226;-76
2023/12/25 03:44:39;;;;;;;3.47;3.28;;;6.10;99.90;;;;;;5058994;28;20214;-77
2023/12/25 03:47:07;;;;;;;4.30;4.00;;;6.10;99.90;;;;;;5060174;28;20225;-76
2023/12/25 03:49:34;;;;;;;4.15;3.85;;;6.00;99.90;;;;;;5059550;28;20585;-77
2023/12/25 03:52:03;;;;;;;3.80;3.55;;;6.00;99.90;;;;;;5061525;28;20206;-77
2023/12/25 03:54:30;;;;;;;4.10;3.70;;;6.00;99.90;;;;;;5060593;28;20229;-76
2023/12/25 03:56:57;;;;;;;3.95;3.65;;;6.00;99.90;;;;;;5061215;28;20202;-76
2023/12/25 03:59:24;;;;;;;3.97;3.67;;;6.00;99.90;;;;;;5059512;28;20293;-77
2023/12/25 04:01:51;;;;;;;3.40;3.20;;;6.00;99.90;;;;;;5060612;28;20210;-76
2023/12/25 04:04:18;;;;;;;3.83;3.53;;;6.10;99.90;;;;;;5062620;28;20198;-75
2023/12/25 04:06:45;;;;;;;3.60;3.30;;;6.10;99.90;;;;;;5060376;28;20602;-75
2023/12/25 04:09:14;;;;;;;3.97;3.60;;;6.10;99.90;;;;;;5063888;28;20236;-76
2023/12/25 04:11:41;;;;;;;3.50;3.30;;;6.10;99.90;;;;;;5061989;28;20221;-76
2023/12/25 04:14:08;;;;;;;4.07;3.78;;;6.10;99.90;;;;;;5059283;28;20214;-76
2023/12/25 04:16:35;;;;;;;4.05;3.75;;;6.20;99.90;;;;;;5060530;28;20886;-77
2023/12/25 04:19:03;;;;;;;4.35;3.97;;;6.20;99.90;;;;;;5061662;28;20875;-76
2023/12/25 04:21:31;;;;;;;4.18;3.88;;;6.10;99.90;;;;;;5061064;28;20217;-76
2023/12/25 04:23:58;;;;;;;4.38;3.85;;;6.10;99.90;;;;;;5060194;28;20222;-78
2023/12/25 04:26:27;;;;;;;4.40;4.00;;;6.10;99.90;;;;;;5063141;28;20285;-76
2023/12/25 04:28:54;;;;;;;4.10;3.80;;;6.00;99.90;;;;;;5057766;28;20253;-76
2023/12/25 04:31:22;;;;;;;4.47;4.07;;;6.00;99.90;;;;;;5060782;28;20218;-76
2023/12/25 04:33:49;;;;;;;4.38;3.97;;;6.00;99.90;;;;;;5059854;28;20594;-75
2023/12/25 04:36:16;;;;;;;4.53;3.97;;;5.90;99.90;;;;;;5061814;28;20214;-76
2023/12/25 04:38:43;;;;;;;4.43;4.10;;;5.90;99.90;;;;;;5061338;28;20233;-77
2023/12/25 04:41:10;;;;;;;4.32;4.03;;;5.80;99.90;;;;;;5059631;28;20202;-75
2023/12/25 04:43:39;;;;;;;4.40;4.10;;;5.80;99.90;;;;;;5060187;28;21055;-76
2023/12/25 04:46:08;;;;;;;4.60;4.30;;;5.80;99.90;;;;;;5058148;28;20764;-77
2023/12/25 04:48:35;;;;;;;5.28;4.80;;;5.80;99.90;;;;;;5059095;28;20226;-75
2023/12/25 04:51:03;;;;;;;4.78;4.40;;;5.80;99.90;;;;;;5060509;28;20229;-77
2023/12/25 04:53:31;;;;;;;5.13;4.72;;;5.80;99.90;;;;;;5057063;28;20772;-77
2023/12/25 04:55:58;;;;;;;4.95;4.55;;;5.80;99.90;;;;;;5060341;28;20676;-76
2023/12/25 04:58:25;;;;;;;4.40;4.00;;;5.80;99.90;;;;;;5061672;28;20233;-76
2023/12/25 05:00:54;;;;;;;4.22;3.92;;;5.80;99.90;;;;;;5057865;28;20221;-76
2023/12/25 05:03:22;;;;;;;4.45;4.15;;;5.90;99.90;;;;;;5059487;28;20765;-77
2023/12/25 05:05:49;;;;;;;4.20;3.90;;;5.90;99.90;;;;;;5062055;28;20226;-76
2023/12/25 05:08:18;;;;;;;4.25;3.95;;;5.90;99.90;;;;;;5060988;28;20235;-76
2023/12/25 05:10:45;;;;;;;4.40;4.10;;;5.90;99.90;;;;;;5061990;28;20832;-76
2023/12/25 05:13:12;;;;;;;4.72;4.32;;;5.90;99.90;;;;;;5061167;28;20233;-76
2023/12/25 05:15:39;;;;;;;4.70;4.30;;;5.90;99.90;;;;;;5060410;28;20198;-76
2023/12/25 05:18:08;;;;;;;4.95;4.55;;;5.90;99.90;;;;;;5066944;28;20226;-76
2023/12/25 05:20:35;;;;;;;4.60;4.30;;;5.90;99.90;;;;;;5061884;28;20210;-77
2023/12/25 05:23:02;;;;;;;4.78;4.38;;;5.90;99.90;;;;;;5059678;28;20783;-77
2023/12/25 05:25:29;;;;;;;4.22;3.92;;;5.90;99.90;;;;;;5060729;28;20202;-76
2023/12/25 05:27:56;;;;;;;5.03;4.63;;;5.90;99.90;;;;;;5057678;28;20222;-76
2023/12/25 05:30:23;;;;;;;5.40;4.90;;;5.90;99.90;;;;;;5058714;28;20221;-76
2023/12/25 05:32:50;;;;;;;4.40;4.10;;;5.90;99.90;;;;;;5058220;28;20230;-76
2023/12/25 05:35:19;;;;;;;4.60;4.20;;;5.90;99.90;;;;;;5059116;28;20210;-77
2023/12/25 05:37:46;;;;;;;4.38;4.07;;;5.90;99.90;;;;;;5058324;28;20229;-77
2023/12/25 05:40:14;;;;;;;4.75;4.35;;;5.90;99.90;;;;;;5059731;28;20712;-77
2023/12/25 05:42:41;;;;;;;4.53;4.22;;;5.90;99.90;;;;;;5057146;28;20338;-76
2023/12/25 05:45:09;;;;;;;4.82;4.45;;;5.90;99.90;;;;;;5058340;28;20206;-77
2023/12/25 05:47:36;;;;;;;5.00;4.60;;;5.90;99.90;;;;;;5059964;28;20230;-77
2023/12/25 05:50:03;;;;;;;4.47;4.18;;;5.80;99.90;;;;;;5055663;28;21274;-77
2023/12/25 05:52:31;;;;;;;4.45;4.00;;;5.80;99.90;;;;;;5057592;28;20218;-75
2023/12/25 05:54:59;;;;;;;3.90;3.60;;;5.70;99.90;;;;;;5057205;28;20687;-75
2023/12/25 05:57:26;;;;;;;4.30;4.00;;;5.70;99.90;;;;;;5058964;28;20230;-77
2023/12/25 05:59:52;;;;;;;4.25;3.95;;;5.70;99.90;;;;;;5055742;28;20293;-76
2023/12/25 06:02:19;;;;;;;4.18;3.88;;;5.70;99.90;;;;;;5058759;28;20249;-75
2023/12/25 06:04:47;;;;;;;4.28;3.97;;;5.70;99.90;;;;;;5059855;28;20198;-77
2023/12/25 06:07:14;;;;;;;3.85;3.55;;;5.70;99.90;;;;;;5057591;28;20278;-76
2023/12/25 06:09:42;;;;;;;4.07;3.78;;;5.80;99.90;;;;;;5059117;28;20204;-76
2023/12/25 06:12:09;;;;;;;4.13;3.83;;;5.80;99.90;;;;;;5058362;28;20650;-77
2023/12/25 06:14:36;;;;;;;3.72;3.53;;;5.80;99.90;;;;;;5056350;28;20206;-77
2023/12/25 06:17:04;;;;;;;4.50;4.10;;;5.80;99.90;;;;;;5058425;28;20266;-76
2023/12/25 06:19:31;;;;;;;4.30;4.00;;;5.80;99.90;;;;;;5058134;28;20302;-76
2023/12/25 06:21:58;;;;;;;4.78;4.43;;;5.80;99.90;;;;;;5059762;28;20194;-76
2023/12/25 06:24:25;;;;;;;4.47;4.18;;;5.90;99.90;;;;;;5056778;28;20217;-75
2023/12/25 06:26:53;;;;;;;5.00;4.60;;;5.90;99.90;;;;;;5057539;28;20205;-77
2023/12/25 06:29:20;;;;;;;5.85;5.35;;;5.90;99.90;;;;;;5058120;28;20205;-76
2023/12/25 06:31:48;;;;;;;5.15;4.78;;;5.80;99.90;;;;;;5056737;28;20217;-76
2023/12/25 06:34:15;;;;;;;5.70;5.20;;;5.80;99.90;;;;;;5060131;28;20230;-77
2023/12/25 06:36:42;;;;;;;5.35;4.95;;;5.70;99.90;;;;;;5056997;28;20209;-77
2023/12/25 06:39:09;;;;;;;5.57;5.18;;;5.60;99.90;;;;;;5056259;28;20983;-76
2023/12/25 06:41:37;;;;;;;5.35;4.95;;;5.60;99.90;;;;;;5056836;28;20202;-76
2023/12/25 06:44:05;;;;;;;5.28;4.88;;;5.50;99.90;;;;;;5058082;28;20234;-76
2023/12/25 06:46:32;;;;;;;5.47;5.00;;;5.50;99.90;;;;;;5057272;28;20210;-76
2023/12/25 06:48:59;;;;;;;5.50;5.00;;;5.50;99.90;;;;;;5061436;28;20220;-76
2023/12/25 06:51:27;;;;;;;5.22;4.80;;;5.50;99.90;;;;;;5053429;28;20214;-76
2023/12/25 06:53:54;;;;;;;4.85;4.45;;;5.40;99.90;;;;;;5061250;28;20313;-76
2023/12/25 06:56:22;;;;;;;4.72;4.35;;;5.40;99.90;;;;;;5057723;28;20209;-76
2023/12/25 06:58:50;;;;;;;5.18;4.78;;;5.40;99.90;;;;;;5057286;28;20226;-76
2023/12/25 07:01:23;;;;;;;5.03;4.63;;;5.40;99.90;;;;;;5055354;28;20668;-76
2023/12/25 07:03:50;;;;;;;5.18;4.72;;;5.40;99.90;;;;;;5057116;28;20218;-77
2023/12/25 07:06:17;;;;;;;5.50;5.10;;;5.40;99.90;;;;;;5054914;28;20207;-76
2023/12/25 07:08:45;;;;;;;5.85;5.35;;;5.50;99.90;;;;;;5057657;28;20225;-76
2023/12/25 07:11:13;;;;;;;6.82;6.13;;;5.50;99.90;;;;;;5059238;28;20218;-75
2023/12/25 07:13:42;;;;;;;6.35;5.75;;;5.50;99.90;;;;;;5052457;28;20324;-75
2023/12/25 07:16:09;;;;;;;6.55;5.90;;;5.50;99.90;;;;;;5056545;28;20195;-77
2023/12/25 07:18:37;;;;;;;6.20;5.60;;;5.40;99.90;;;;;;5056701;28;20229;-77
2023/12/25 07:21:05;;;;;;;5.40;5.00;;;5.40;99.90;;;;;;5056326;28;20206;-77
2023/12/25 07:23:32;;;;;;;5.90;5.30;;;5.40;99.90;;;;;;5056262;28;20226;-76
2023/12/25 07:25:59;;;;;;;6.85;6.20;;;5.30;99.90;;;;;;5056535;28;20191;-76
2023/12/25 07:28:26;;;;;;;6.53;5.93;;;5.30;99.90;;;;;;5054208;28;20222;-76
2023/12/25 07:30:53;;;;;;;6.25;5.75;;;5.30;99.90;;;;;;5055751;28;20198;-75
2023/12/25 07:33:20;;;;;;;5.97;5.47;;;5.30;99.90;;;;;;5059305;28;20222;-77
2023/12/25 07:35:48;;;;;;;6.72;6.13;;;5.40;99.90;;;;;;5059749;28;20202;-76
2023/12/25 07:38:15;;;;;;;5.80;5.30;;;5.40;99.90;;;;;;5063193;28;20225;-76
2023/12/25 07:40:43;;;;;;;5.97;5.40;;;5.50;99.90;;;;;;5053835;28;20202;-76
2023/12/25 07:43:10;;;;;;;6.20;5.60;;;5.60;99.90;;;;;;5056706;28;20221;-75
2023/12/25 07:45:38;;;;;;;5.40;5.00;;;5.70;99.90;;;;;;5060794;28;20279;-75
2023/12/25 07:48:05;;;;;;;7.50;4.40;;;5.70;99.90;;;;;;5061406;28;20500;-76
2023/12/25 07:50:32;;;;;;;5.50;5.10;;;5.80;99.90;;;;;;5059475;28;20206;-77
2023/12/25 07:53:01;;;;;;;4.80;4.40;;;5.80;99.90;;;;;;5057931;28;20693;-77
2023/12/25 07:55:30;;;;;;;5.53;5.03;;;5.90;99.90;;;;;;5063352;28;20827;-76
2023/12/25 07:57:57;;;;;;;5.38;4.78;;;5.90;99.90;;;;;;5063243;28;20308;-78
2023/12/25 08:00:25;;;;;;;6.20;5.47;;;5.90;99.90;;;;;;5058773;28;20209;-77
2023/12/25 08:02:52;;;;;;;5.53;5.03;;;5.90;99.90;;;;;;5061355;28;20221;-76
2023/12/25 08:05:19;;;;;;;5.38;4.97;;;5.90;99.90;;;;;;5063294;28;20202;-77
2023/12/25 08:07:46;;;;;;;6.43;5.43;;;5.90;99.90;;;;;;5063561;28;20226;-77
2023/12/25 08:10:15;;;;;;;6.30;5.68;;;6.00;99.90;;;;;;5060316;28;20676;-76
2023/12/25 08:12:43;;;;;;;6.20;5.65;;;6.10;99.90;;;;;;5060127;28;20226;-76
2023/12/25 08:15:11;;;;;;;6.47;5.88;;;6.20;99.90;;;;;;5062359;28;20206;-76
2023/12/25 08:17:38;;;;;;;6.53;5.93;;;6.30;99.90;;;;;;5061583;28;20321;-76
2023/12/25 08:20:06;;;;;;;6.47;5.85;;;6.40;99.90;;;;;;5061461;28;20202;-76
2023/12/25 08:22:33;;;;;;;6.28;5.68;;;6.60;99.90;;;;;;5060391;28;20713;-77
2023/12/25 08:25:00;;;;;;;6.25;5.70;;;6.70;99.90;;;;;;5060827;28;20764;-76
2023/12/25 08:27:29;;;;;;;7.25;6.47;;;6.70;99.90;;;;;;5060964;28;20313;-77
2023/12/25 08:29:56;;;;;;;7.30;6.60;;;6.70;99.90;;;;;;5060521;28;20205;-76
2023/12/25 08:32:23;;;;;;;7.32;6.63;;;6.70;99.90;;;;;;5059655;28;20226;-75
2023/12/25 08:34:50;;;;;;;6.68;6.13;;;6.50;99.90;;;;;;5061427;28;20206;-76
2023/12/25 08:37:18;;;;;;;6.70;6.00;;;6.60;99.90;;;;;;5062774;28;20222;-78
2023/12/25 08:39:45;;;;;;;6.97;6.30;;;6.70;99.90;;;;;;5057141;28;20279;-76
2023/12/25 08:42:12;;;;;;;7.70;7.07;;;6.90;99.90;;;;;;5059897;28;20221;-76
2023/12/25 08:44:41;;;;;;;7.90;7.20;;;7.20;99.90;;;;;;5061185;28;20674;-76
2023/12/25 08:47:08;;;;;;;7.53;6.82;;;7.60;99.90;;;;;;5059068;28;20221;-76
2023/12/25 08:49:36;;;;;;;7.80;7.10;;;8.10;99.90;;;;;;5058925;28;20206;-75
2023/12/25 08:52:03;;;;;;;8.13;7.30;;;8.50;99.90;;;;;;5063305;28;20226;-77
2023/12/25 08:54:30;;;;;;;8.45;7.15;;;9.20;99.90;;;;;;5060244;28;20208;-77
2023/12/25 08:57:00;;;;;;;7.07;6.47;;;10.10;99.90;;;;;;5058011;28;20202;-76
2023/12/25 08:59:27;;;;;;;10.85;9.82;;;10.80;99.90;;;;;;5058580;28;20625;-76
2023/12/25 09:01:55;;;;;;;9.55;8.65;;;12.20;99.90;;;;;;5060397;28;20205;-76
2023/12/25 09:04:22;;;;;;;8.20;7.47;;;13.40;99.90;;;;;;5060029;28;20198;-77
2023/12/25 09:06:49;;;;;;;9.20;8.27;;;14.30;99.90;;;;;;5058626;28;20198;-77
2023/12/25 09:09:16;;;;;;;8.98;8.10;;;15.00;99.90;;;;;;5060907;28;20214;-75
2023/12/25 09:11:43;;;;;;;8.52;7.78;;;15.70;99.90;;;;;;5057043;28;20229;-76
2023/12/25 09:14:10;;;;;;;9.20;8.27;;;16.00;99.90;;;;;;5061122;28;20230;-75
2023/12/25 09:16:37;;;;;;;8.85;8.05;;;14.70;99.90;;;;;;5058372;28;20194;-75
2023/12/25 09:19:06;;;;;;;8.45;7.53;;;13.40;99.90;;;;;;5061164;28;20229;-77
2023/12/25 09:21:38;;;;;;;8.32;7.43;;;14.60;99.90;;;;;;5058628;28;20209;-76
2023/12/25 09:24:05;;;;;;;7.35;6.65;;;17.10;99.90;;;;;;5055843;28;20317;-76
2023/12/25 09:26:32;;;;;;;7.22;6.53;;;19.50;98.30;;;;;;5052851;28;20214;-77
2023/12/25 09:28:59;;;;;;;7.65;6.95;;;20.90;91.30;;;;;;5056331;28;20223;-76
2023/12/25 09:31:27;;;;;;;7.90;7.10;;;22.00;82.50;;;;;;5056226;28;20209;-77
2023/12/25 09:33:54;;;;;;;7.90;7.18;;;22.80;76.80;;;;;;5060238;28;20226;-76
2023/12/25 09:36:24;;;;;;;7.45;6.75;;;23.60;72.20;;;;;;5059991;28;20201;-77
2023/12/25 09:38:51;;;;;;;7.10;6.40;;;23.90;68.00;;;;;;5056258;28;20229;-77
2023/12/25 09:41:18;;;;;;;8.23;7.35;;;24.20;60.60;;;;;;5060736;28;20213;-77
2023/12/25 09:43:47;;;;;;;9.25;7.57;;;24.20;60.00;;;;;;5059049;28;20221;-77
2023/12/25 09:46:15;;;;;;;8.13;7.32;;;24.20;59.20;;;;;;5058500;28;20620;-77
2023/12/25 09:48:43;;;;;;;8.48;7.65;;;24.50;58.00;;;;;;5062008;28;20741;-76
2023/12/25 09:51:12;;;;;;;7.53;6.82;;;24.40;56.80;;;;;;5059282;28;20210;-77
2023/12/25 09:53:40;;;;;;;8.40;7.18;;;24.40;56.10;;;;;;5061497;28;20291;-76
2023/12/25 09:56:12;;;;;;;7.30;6.60;;;24.60;56.10;;;;;;5060220;28;20214;-76
2023/12/25 09:58:41;;;;;;;8.75;7.70;;;24.70;53.60;;;;;;5064880;28;21030;-75
2023/12/25 10:01:08;;;;;;;7.70;6.90;;;23.90;54.50;;;;;;5055169;28;20209;-77
2023/12/25 10:03:38;;;;;;;9.57;7.85;;;22.70;56.50;;;;;;5056074;28;20448;-76
2023/12/25 10:06:06;;;;;;;8.80;7.90;;;21.40;59.60;;;;;;5059755;28;20618;-76
2023/12/25 10:08:33;;;;;;;8.85;7.95;;;20.10;62.50;;;;;;5056669;28;20224;-76
2023/12/25 10:11:04;;;;;;;8.05;7.25;;;19.00;66.60;;;;;;5060249;28;20202;-75
2023/12/25 10:13:31;;;;;;;8.35;7.50;;;18.10;70.30;;;;;;5055722;28;20229;-76
2023/12/25 10:15:58;;;;;;;8.10;7.30;;;17.40;72.90;;;;;;5057944;28;20205;-76
2023/12/25 10:18:25;;;;;;;8.32;7.10;;;17.00;75.70;;;;;;5058451;28;20229;-76
2023/12/25 10:20:57;;;;;;;8.90;7.95;;;16.80;78.10;;;;;;5059033;28;20213;-77
2023/12/25 10:23:29;;;;;;;9.68;8.27;;;16.40;79.50;;;;;;5061314;28;20989;-76
2023/12/25 10:25:58;;;;;;;8.85;7.95;;;16.10;81.50;;;;;;5054961;28;20234;-76
2023/12/25 10:28:28;;;;;;;8.52;7.70;;;15.90;83.10;;;;;;5055614;28;20233;-76
2023/12/25 10:31:00;;;;;;;9.27;8.38;;;15.60;85.10;;;;;;5057711;28;20203;-76
2023/12/25 10:33:27;;;;;;;8.52;7.10;;;15.30;87.30;;;;;;5053423;28;20309;-76
2023/12/25 10:36:05;;;;;;;8.77;7.97;;;15.00;89.10;;;;;;5058100;28;20297;-76
2023/12/25 10:38:34;;;;;;;9.00;7.93;;;14.80;89.70;;;;;;5058469;28;20244;-76
2023/12/25 10:41:17;;;;;;;8.13;7.43;;;14.40;90.80;;;;;;5054031;28;20229;-76
2023/12/25 10:43:50;;;;;;;10.50;8.43;;;14.10;91.50;;;;;;5057158;28;20288;-76
2023/12/25 10:46:20;;;;;;;9.52;8.52;;;13.90;92.30;;;;;;5058080;28;20229;-75
2023/12/25 10:48:50;;;;;;;9.35;8.38;;;13.90;92.90;;;;;;5056758;28;20774;-77
2023/12/25 10:51:26;;;;;;;8.90;7.75;;;14.10;93.40;;;;;;5056622;28;20206;-76
2023/12/25 10:53:53;;;;;;;11.85;8.95;;;14.30;93.50;;;;;;5054236;28;20222;-76
2023/12/25 10:56:23;;;;;;;8.45;7.65;;;14.50;93.40;;;;;;5056097;28;20210;-75
2023/12/25 10:58:52;;;;;;;8.38;7.57;;;14.40;93.60;;;;;;5056141;28;20237;-76
2023/12/25 11:01:25;;;;;;;9.82;8.20;;;14.40;94.30;;;;;;5052006;28;20204;-76
2023/12/25 11:03:52;;;;;;;8.55;7.65;;;14.80;94.10;;;;;;5054218;28;20304;-75
2023/12/25 11:06:20;;;;;;;10.02;9.00;;;14.90;93.90;;;;;;5056372;28;21043;-77
2023/12/25 11:08:48;;;;;;;9.02;8.23;;;14.80;93.60;;;;;;5052193;28;20309;-77
2023/12/25 11:11:16;;;;;;;9.15;8.25;;;14.80;93.30;;;;;;5053195;28;20191;-76
2023/12/25 11:13:44;;;;;;;8.15;7.35;;;14.80;93.40;;;;;;5053809;28;20223;-76
2023/12/25 11:16:12;;;;;;;8.50;7.55;;;15.00;92.80;;;;;;5057310;28;20313;-76
2023/12/25 11:18:40;;;;;;;10.75;8.02;;;15.20;92.50;;;;;;5055780;28;20230;-77
2023/12/25 11:21:08;;;;;;;7.82;7.07;;;15.40;92.00;;;;;;5056815;28;20206;-76
2023/12/25 11:23:37;;;;;;;7.57;6.88;;;15.40;91.70;;;;;;5058508;28;20890;-76
2023/12/25 11:26:06;;;;;;;7.32;6.63;;;15.60;91.40;;;;;;5058503;28;20410;-76
2023/12/25 11:28:36;;;;;;;6.18;5.57;;;15.80;91.60;;;;;;5056604;28;20234;-76
2023/12/25 11:31:04;;;;;;;6.00;5.40;;;16.20;90.60;;;;;;5059455;28;20310;-77
2023/12/25 11:33:46;;;;;;;7.10;6.40;;;16.40;88.90;;;;;;5059146;28;20448;-77
2023/12/25 11:36:15;;;;;;;6.18;5.68;;;16.40;86.50;;;;;;5059966;28;20210;-76
2023/12/25 11:38:43;;;;;;;6.57;5.97;;;16.30;86.80;;;;;;5057673;28;20222;-76
2023/12/25 11:41:16;;;;;;;5.82;5.32;;;16.40;86.80;;;;;;5059218;28;20289;-77
2023/12/25 11:43:43;;;;;;;6.47;5.88;;;16.40;85.30;;;;;;5058543;28;20218;-76
2023/12/25 11:46:16;;;;;;;6.68;6.07;;;16.40;85.60;;;;;;5056693;28;20258;-77
2023/12/25 11:48:45;;;;;;;6.25;5.65;;;16.20;85.40;;;;;;5060029;28;20315;-76
2023/12/25 11:51:25;;;;;;;6.57;5.75;;;16.00;83.40;;;;;;5060853;28;20292;-77
2023/12/25 11:53:53;;;;;;;6.97;6.28;;;15.80;85.00;;;;;;5039844;28;20711;-77
2023/12/25 11:56:20;;;;;;;6.78;6.07;;;15.70;86.30;;;;;;5039916;28;20861;-76
2023/12/25 11:58:48;;;;;;;7.03;6.43;;;15.40;86.90;;;;;;5055630;28;20234;-77
2023/12/25 12:01:19;;;;;;;6.88;6.28;;;15.10;87.50;;;;;;5059663;28;20679;-77
2023/12/25 12:03:49;;;;;;;6.63;6.03;;;15.10;87.70;;;;;;5057114;28;20217;-77
2023/12/25 12:06:17;;;;;;;7.80;6.03;;;15.30;88.60;;;;;;5060940;28;20210;-76
2023/12/25 12:08:44;;;;;;;6.75;6.15;;;15.50;88.20;;;;;;5062125;28;20221;-76
2023/12/25 12:11:14;;;;;;;7.28;6.57;;;15.50;88.20;;;;;;5059192;28;20202;-76
2023/12/25 12:13:41;;;;;;;8.02;7.03;;;15.50;88.10;;;;;;5059058;28;20223;-77
2023/12/25 12:16:08;;;;;;;7.90;7.10;;;15.40;88.40;;;;;;5061838;28;20209;-76
2023/12/25 12:18:36;;;;;;;7.60;6.90;;;15.40;88.50;;;;;;5059464;28;20258;-75
2023/12/25 12:21:06;;;;;;;7.55;6.70;;;15.40;88.80;;;;;;5060125;28;20206;-77
2023/12/25 12:23:33;;;;;;;7.50;6.80;;;15.50;86.90;;;;;;5058253;28;20638;-76
2023/12/25 12:26:01;;;;;;;6.95;6.35;;;15.50;88.30;;;;;;5061972;28;20201;-77
2023/12/25 12:28:28;;;;;;;7.32;6.63;;;15.40;88.80;;;;;;5059360;28;20233;-76
2023/12/25 12:30:55;;;;;;;6.65;6.00;;;15.30;87.30;;;;;;5058385;28;20763;-76
2023/12/25 12:33:24;;;;;;;7.05;6.35;;;15.30;88.00;;;;;;5060098;28;20309;-76
2023/12/25 12:35:51;;;;;;;6.70;6.10;;;15.40;88.70;;;;;;5057831;28;20298;-77
2023/12/25 12:38:21;;;;;;;6.97;6.25;;;15.50;88.90;;;;;;5058854;28;20668;-77
2023/12/25 12:40:50;;;;;;;7.45;6.47;;;15.50;88.90;;;;;;5061331;28;20206;-76
2023/12/25 12:43:20;;;;;;;7.30;6.60;;;15.30;88.80;;;;;;5062334;28;20214;-76
2023/12/25 12:45:47;;;;;;;7.28;6.57;;;15.00;89.50;;;;;;5062907;28;20206;-77
2023/12/25 12:48:14;;;;;;;7.32;6.63;;;15.00;90.20;;;;;;5066081;28;20217;-76
2023/12/25 12:50:42;;;;;;;7.38;6.68;;;14.70;90.30;;;;;;5057842;28;20743;-77
2023/12/25 12:53:09;;;;;;;7.15;6.45;;;14.80;90.70;;;;;;5059474;28;20264;-76
2023/12/25 12:55:37;;;;;;;6.97;6.38;;;14.90;90.50;;;;;;5056725;28;20213;-76